Woods Cross, UT

11:43 AM MST on January 31, 2015 (GMT -0700)
Woodland Hills | Change Station
CLOSE
Current Station
Personal Weather Station
Location: Bountiful, UT
Elevation: 4646 ft
Nearby Weather Stations

Elev 4646 ft 40.88 °N, 111.87 °W | Updated 12 seconds ago

Partly Cloudy
Partly Cloudy
51.4 °F
Feels Like 51.4 °F
N
0.0
Wind Variable Wind from SSW
Gusts 4.9 mph

Today
High -- | Low -- °F
--% Chance of Precip.
Yesterday
High -- | Low -- °F
Precip. -- in
7:38 AM 5:43 PM
Waxing Gibbous, 91% visible
Pressure 30.04 in
Visibility 10.0 miles
Clouds Few 2000 ft
Few 4500 ft
Scattered Clouds 20000 ft
Dew Point 26 °F
Humidity 38%
Rainfall 0.00 in
Snow Depth Not available.
UV 2 out of 12
Pollen .10 out of 12
Air Quality Not available.
Flu Activity Not available.
METAR KSLC 311753Z 31011KT 10SM FEW020 FEW045 SCT200 04/M01 A3005 RMK AO2 SLP170 T00441006 10050 20011 53011

More Conditions Fewer Conditions

Pressure 30.04 in
Visibility 10.0 miles
Clouds Few 2000 ft
Few 4500 ft
Scattered Clouds 20000 ft
Dew Point 26 °F
Humidity 38%
Rainfall 0.00 in
Snow Depth Not available.
UV 2 out of 12
Pollen .10 out of 12
Air Quality Not available.
Flu Activity Not available.
METAR KSLC 311753Z 31011KT 10SM FEW020 FEW045 SCT200 04/M01 A3005 RMK AO2 SLP170 T00441006 10050 20011 53011

More Conditions Fewer Conditions

10-Day Weather Forecast

Almanac

Astronomy

Jan. 31, 2015 Rise Set
Actual Time
Civil Twilight
Nautical Twilight
Astronomical Twilight
Moon
Length of Visible Light
Length of Day
Tomorrow will be .
, % of the Moon is Illuminated

Today's Extremes

State Highs State Lows

Community

WunderPhotos

Upload Photos

1,792,149 photos uploaded!

WunderBlogs® & News

Nearby

Air Quality

  Air Quality AQ Index Pollutant
Not available.

Snow Depth

Station Depth Elevation

Earthquake Activity

City Distance Mag. Time & Date
Minimum magnitude displayed is 2.5.

Coastal Water Temperatures

Place Temperature

Nearby Weather Stations